Strona główna
METAR-TAF:

METAR-TAF

Lotnisko :

Fort Meade, Maryland, Stany Zjednoczone

Szerokość geograficzna: 39-05N, Długość geograficzna: 076-46W, wysokość: 46 m

Aktualna obserwacja pogody

Raport powstał 24 minut temu, godzina 10:48 UTC
Cisza
Temperatura 1°C
Wilgotność 93%
Ciśnienie 1025 hPa
Widzialność: 16.1 km
Rozproszone chmury na wysokości 2200 ft
Rozproszone chmury na wysokości 2600 ft
Przerywane chmury na wysokości 3200 ft

METAR: KFME 181048Z AUTO 00000KT 10SM SCT022 SCT026 BKN032 01/00 A3027 RMK AO1

czas: 06:12 (11:12 UTC)


TAF: brakujący

Obserwacja i prognoza pogody dla ponad 4000 lotnisk (raport METAR i TAF).

Dostępne stacje oznaczono żółtymi i czerwonymi punktami na mapie.

Najedź kursorem aby zobaczyć nazwę stacji.

Kliknij aby zobaczyć obserwacje i prognozy pogody.

Aby zmienić mapę: kliknij na zielony przycisk z czarnym krzyżykiem, aby powiększyć; na zielony przycisk z myślnikiem, aby pomniejszyć; na zielone strzałki, aby przejść do map sąsiednich.


METAR-TAF: